Time;durP1;ratioP1;P1;durP2;ratioP2;P2;SDS_P1;SDS_P2;PMS_P1;PMS_P2;Temp;Humidity;BMP_temperature;BMP_pressure;BME280_temperature;BME280_humidity;BME280_pressure;Samples;Min_cycle;Max_cycle;Signal;HPM_P1;HPM_P2
2021/12/10 00:00:23;;;;;;;;;;;;;;;21.07;34.43;100241.73;99225;1381;71512;-80
2021/12/10 00:03:09;;;;;;;;;;;;;;;21.08;34.41;100238.84;99490;1384;76077;-80
2021/12/10 00:06:14;;;;;;;;;;;;;;;;;;;;;
2021/12/10 00:09:33;;;;;;;;;;;;;;;21.07;34.41;100236.01;99515;1383;61414;-80
2021/12/10 00:12:49;;;;;;;;;;;;;;;;;;;;;
2021/12/10 00:15:46;;;;;;;;;;;;;;;;;;;;;
2021/12/10 00:19:07;;;;;;;;;;;;;;;21.07;34.42;100231.52;99161;1387;61589;-81
2021/12/10 00:22:28;;;;;;;;;;;;;;;21.07;34.44;100232.42;98984;1390;61241;-80
2021/12/10 00:25:07;;;;;;;;;;;;;;;21.07;34.47;100234.92;99226;1381;71486;-80
2021/12/10 00:28:02;;;;;;;;;;;;;;;21.08;34.49;100235.23;99303;1387;75945;-81
2021/12/10 00:32:16;;;;;;;;;;;;;;;21.08;34.47;100231.84;99177;1384;61451;-81
2021/12/10 00:35:00;;;;;;;;;;;;;;;21.08;34.53;100220.37;99169;1384;61494;-81
2021/12/10 00:41:14;;;;;;;;;;;;;;;21.08;34.57;100211.07;98620;1397;73661;-81
2021/12/10 00:44:24;;;;;;;;;;;;;;;21.08;34.47;100205.52;98704;1393;61883;-82
2021/12/10 00:47:30;;;;;;;;;;;;;;;21.09;34.54;100197.41;98680;1394;61316;-81
2021/12/10 00:51:00;;;;;;;;;;;;;;;21.08;34.62;100194.75;98718;1397;74001;-81
2021/12/10 00:53:52;;;;;;;;;;;;;;;;;;;;;
2021/12/10 00:56:39;;;;;;;;;;;;;;;;;;;;;
2021/12/10 01:00:06;;;;;;;;;;;;;;;21.10;34.50;100181.40;99129;1386;61180;-80
2021/12/10 01:06:26;;;;;;;;;;;;;;;21.09;34.58;100176.61;99259;1386;74964;-82
2021/12/10 01:12:42;;;;;;;;;;;;;;;21.09;34.59;100170.89;99968;1376;61455;-80
2021/12/10 01:23:46;;;;;;;;;;;;;;;21.09;34.70;100164.42;100457;1371;74109;-80
2021/12/10 01:25:22;;;;;;;;;;;;;;;21.10;34.63;100170.65;100595;1366;61187;-80
2021/12/10 01:28:28;;;;;;;;;;;;;;;21.10;34.67;100161.51;100189;1369;72095;-80
2021/12/10 01:31:44;;;;;;;;;;;;;;;21.10;34.64;100161.66;100495;1368;76200;-81
2021/12/10 01:34:50;;;;;;;;;;;;;;;21.10;34.58;100159.01;100123;1377;61339;-80
2021/12/10 01:37:55;;;;;;;;;;;;;;;;;;;;;
2021/12/10 01:40:52;;;;;;;;;;;;;;;21.10;34.55;100131.84;99632;1383;72895;-81
2021/12/10 01:43:51;;;;;;;;;;;;;;;;;;;;;
2021/12/10 01:47:08;;;;;;;;;;;;;;;;;;;;;
2021/12/10 01:53:41;;;;;;;;;;;;;;;21.11;34.68;100112.27;99140;1387;73067;-80
2021/12/10 01:56:29;;;;;;;;;;;;;;;21.12;34.68;100113.48;99251;1387;75707;-80
2021/12/10 02:00:19;;;;;;;;;;;;;;;21.11;34.69;100112.98;99280;1388;61424;-80
2021/12/10 02:02:53;;;;;;;;;;;;;;;21.11;34.70;100117.46;99460;1384;61390;-81
2021/12/10 02:06:18;;;;;;;;;;;;;;;;;;;;;
2021/12/10 02:09:15;;;;;;;;;;;;;;;;;;;;;
2021/12/10 02:12:09;;;;;;;;;;;;;;;21.12;34.64;100108.11;99794;1375;61205;-80
2021/12/10 02:15:10;;;;;;;;;;;;;;;21.12;34.80;100102.91;99621;1381;61561;-81
2021/12/10 02:18:27;;;;;;;;;;;;;;;;;;;;;
2021/12/10 02:21:22;;;;;;;;;;;;;;;21.12;34.65;100093.59;99558;1381;75988;-80
2021/12/10 02:24:41;;;;;;;;;;;;;;;;;;;;;
2021/12/10 02:27:25;;;;;;;;;;;;;;;21.12;34.67;100086.22;99332;1386;61476;-82
2021/12/10 02:30:30;;;;;;;;;;;;;;;21.12;34.66;100079.45;99457;1378;73718;-81
2021/12/10 02:33:36;;;;;;;;;;;;;;;21.12;34.70;100079.80;99484;1384;76148;-80
2021/12/10 02:36:32;;;;;;;;;;;;;;;21.12;34.72;100084.10;99444;1384;61257;-81
2021/12/10 02:39:23;;;;;;;;;;;;;;;21.12;34.68;100083.36;99493;1384;61728;-81
2021/12/10 02:42:40;;;;;;;;;;;;;;;;;;;;;
2021/12/10 02:45:58;;;;;;;;;;;;;;;21.12;34.67;100070.16;99554;1381;74877;-81
2021/12/10 02:48:57;;;;;;;;;;;;;;;;;;;;;
2021/12/10 02:52:09;;;;;;;;;;;;;;;;;;;;;
2021/12/10 02:55:17;;;;;;;;;;;;;;;;;;;;;
2021/12/10 02:58:15;;;;;;;;;;;;;;;;;;;;;
2021/12/10 03:01:29;;;;;;;;;;;;;;;;;;;;;
2021/12/10 03:04:39;;;;;;;;;;;;;;;21.14;34.88;100066.95;100625;1369;62019;-80
2021/12/10 03:07:52;;;;;;;;;;;;;;;21.14;34.92;100064.45;100780;1369;72754;-81
2021/12/10 03:10:23;;;;;;;;;;;;;;;;;;;;;
2021/12/10 03:13:32;;;;;;;;;;;;;;;21.13;34.78;100063.58;100823;1369;63437;-80
2021/12/10 03:16:17;;;;;;;;;;;;;;;21.14;34.88;100069.83;100488;1371;61227;-81
2021/12/10 03:19:59;;;;;;;;;;;;;;;21.13;34.77;100054.50;100450;1366;71574;-81
2021/12/10 03:23:09;;;;;;;;;;;;;;;21.13;34.90;100044.34;100192;1372;74888;-81
2021/12/10 03:29:02;;;;;;;;;;;;;;;;;;;;;
2021/12/10 03:31:40;;;;;;;;;;;;;;;;;;;;;
2021/12/10 03:34:41;;;;;;;;;;;;;;;21.14;34.92;100033.69;100396;1372;74015;-80
2021/12/10 03:37:20;;;;;;;;;;;;;;;;;;;;;
2021/12/10 03:40:05;;;;;;;;;;;;;;;;;;;;;
2021/12/10 03:43:43;;;;;;;;;;;;;;;21.14;34.91;100010.06;99829;1375;71493;-80
2021/12/10 03:46:33;;;;;;;;;;;;;;;21.14;34.95;100002.14;99473;1384;73608;-80
2021/12/10 03:49:51;;;;;;;;;;;;;;;21.15;35.03;100011.43;98831;1390;61223;-81
2021/12/10 03:52:45;;;;;;;;;;;;;;;21.15;34.98;100015.87;98593;1394;61795;-79
2021/12/10 03:55:38;;;;;;;;;;;;;;;21.15;35.04;100016.39;98893;1390;73003;-78
2021/12/10 03:59:05;;;;;;;;;;;;;;;21.15;34.98;100010.85;98817;1390;75913;-78
2021/12/10 04:02:11;;;;;;;;;;;;;;;21.16;35.02;100000.94;98598;1393;61580;-79
2021/12/10 04:07:59;;;;;;;;;;;;;;;;;;;;;
2021/12/10 04:10:54;;;;;;;;;;;;;;;21.16;35.04;100003.11;98515;1401;76111;-81
2021/12/10 04:14:05;;;;;;;;;;;;;;;;;;;;;
2021/12/10 04:17:25;;;;;;;;;;;;;;;;;;;;;
2021/12/10 04:20:52;;;;;;;;;;;;;;;21.16;35.05;99988.58;97766;1403;71592;-80
2021/12/10 04:23:37;;;;;;;;;;;;;;;21.16;35.17;99995.14;98337;1400;74710;-80
2021/12/10 04:26:29;;;;;;;;;;;;;;;21.16;35.09;99994.43;98673;1383;61400;-81
2021/12/10 04:29:24;;;;;;;;;;;;;;;;;;;;;
2021/12/10 04:32:27;;;;;;;;;;;;;;;;;;;;;
2021/12/10 04:35:13;;;;;;;;;;;;;;;21.17;35.15;99986.16;98870;1383;75087;-78
2021/12/10 04:37:50;;;;;;;;;;;;;;;21.17;35.20;99984.58;98905;1387;61350;-78
2021/12/10 04:40:36;;;;;;;;;;;;;;;21.17;35.15;99980.29;99086;1391;61241;-80
2021/12/10 04:43:35;;;;;;;;;;;;;;;;;;;;;
2021/12/10 04:47:06;;;;;;;;;;;;;;;21.17;35.10;99986.88;99693;1381;73672;-80
2021/12/10 04:50:01;;;;;;;;;;;;;;;;;;;;;
2021/12/10 04:52:51;;;;;;;;;;;;;;;21.17;35.22;99978.48;100268;1372;61517;-80
2021/12/10 04:55:37;;;;;;;;;;;;;;;21.17;35.14;99982.98;99719;1374;74214;-80
2021/12/10 04:58:45;;;;;;;;;;;;;;;21.15;35.10;99986.30;99570;1384;73623;-80
2021/12/10 05:02:12;;;;;;;;;;;;;;;21.12;35.23;99981.89;99206;1381;61817;-81
2021/12/10 05:05:07;;;;;;;;;;;;;;;;;;;;;
2021/12/10 05:08:19;;;;;;;;;;;;;;;21.05;35.16;99986.79;98647;1392;71640;-82
2021/12/10 05:11:23;;;;;;;;;;;;;;;;;;;;;
2021/12/10 05:14:43;;;;;;;;;;;;;;;;;;;;;
2021/12/10 05:17:49;;;;;;;;;;;;;;;20.91;35.05;99970.80;98678;1393;61900;-83
2021/12/10 05:20:56;;;;;;;;;;;;;;;20.88;34.96;99973.77;98978;1384;72909;-80
2021/12/10 05:24:20;;;;;;;;;;;;;;;20.85;34.92;99968.11;98954;1383;75063;-80
2021/12/10 05:27:00;;;;;;;;;;;;;;;;;;;;;
2021/12/10 05:29:46;;;;;;;;;;;;;;;20.79;35.06;99959.48;99103;1385;61480;-80
2021/12/10 05:32:21;;;;;;;;;;;;;;;20.77;34.87;99954.63;99330;1377;74084;-80
2021/12/10 05:35:29;;;;;;;;;;;;;;;20.74;34.91;99952.30;99731;1373;76777;-79
2021/12/10 05:38:13;;;;;;;;;;;;;;;20.72;34.80;99943.06;100147;1369;61388;-80
2021/12/10 05:40:59;;;;;;;;;;;;;;;20.70;34.82;99943.05;100004;1367;61735;-79
2021/12/10 05:43:58;;;;;;;;;;;;;;;20.68;34.79;99943.38;100511;1362;72712;-79
2021/12/10 05:46:33;;;;;;;;;;;;;;;20.66;34.82;99939.95;101133;1358;74989;-80
2021/12/10 05:49:21;;;;;;;;;;;;;;;20.64;34.85;99940.27;100784;1357;61287;-80
2021/12/10 05:52:07;;;;;;;;;;;;;;;20.60;34.83;99940.03;101065;1355;61319;-79
2021/12/10 05:54:35;;;;;;;;;;;;;;;20.57;34.79;99933.88;100683;1356;61300;-80
2021/12/10 05:57:01;;;;;;;;;;;;;;;20.52;34.88;99924.49;100648;1356;73865;-79
2021/12/10 05:59:30;;;;;;;;;;;;;;;20.50;34.93;99925.88;100436;1355;61575;-79
2021/12/10 06:01:56;;;;;;;;;;;;;;;20.49;34.95;99923.14;101896;1362;61637;-80
2021/12/10 06:04:27;;;;;;;;;;;;;;;20.44;34.97;99918.85;101905;1359;59415;-79
2021/12/10 06:06:52;;;;;;;;;;;;;;;20.37;35.06;99918.02;102024;1356;74995;-79
2021/12/10 06:09:17;;;;;;;;;;;;;;;20.35;35.20;99914.61;102008;1356;59553;-79
2021/12/10 06:11:43;;;;;;;;;;;;;;;20.37;35.16;99912.63;101849;1357;59862;-79
2021/12/10 06:14:09;;;;;;;;;;;;;;;20.40;35.32;99919.39;101237;1349;61315;-79
2021/12/10 06:16:38;;;;;;;;;;;;;;;20.43;35.13;99916.60;101113;1350;61322;-79
2021/12/10 06:19:10;;;;;;;;;;;;;;;20.47;35.08;99911.98;101207;1350;61489;-78
2021/12/10 06:21:49;;;;;;;;;;;;;;;20.53;35.08;99918.48;101112;1349;61258;-78
2021/12/10 06:24:34;;;;;;;;;;;;;;;20.59;35.07;99911.52;102652;1348;71932;-79
2021/12/10 06:27:00;;;;;;;;;;;;;;;20.64;34.94;99912.91;102667;1351;59420;-79
2021/12/10 06:29:27;;;;;;;;;;;;;;;20.70;34.96;99912.66;102615;1351;59575;-79
2021/12/10 06:31:53;;;;;;;;;;;;;;;20.74;35.14;99909.92;102847;1348;59488;-80
2021/12/10 06:34:18;;;;;;;;;;;;;;;20.79;35.08;99909.04;102634;1354;59567;-79
2021/12/10 06:36:53;;;;;;;;;;;;;;;20.84;34.97;99902.18;101442;1350;61279;-78
2021/12/10 06:39:20;;;;;;;;;;;;;;;20.88;34.96;99908.06;101301;1349;60384;-79
2021/12/10 06:41:49;;;;;;;;;;;;;;;20.93;34.81;99899.84;101931;1351;59405;-78
2021/12/10 06:44:15;;;;;;;;;;;;;;;20.96;34.87;99890.98;102447;1353;73836;-81
2021/12/10 06:46:52;;;;;;;;;;;;;;;21.00;34.75;99892.21;101191;1352;61287;-78
2021/12/10 06:49:23;;;;;;;;;;;;;;;21.06;34.81;99900.69;101542;1348;61253;-79
2021/12/10 06:51:53;;;;;;;;;;;;;;;21.11;34.73;99907.96;101117;1350;62811;-80
2021/12/10 06:54:22;;;;;;;;;;;;;;;21.12;34.47;99910.05;101182;1349;73266;-79
2021/12/10 06:56:51;;;;;;;;;;;;;;;21.07;34.69;99914.52;101299;1348;75791;-80
2021/12/10 06:59:22;;;;;;;;;;;;;;;21.00;34.51;99922.52;101075;1348;61500;-79
2021/12/10 07:02:14;;;;;;;;;;;;;;;20.90;34.82;99923.63;101225;1350;61330;-79
2021/12/10 07:04:51;;;;;;;;;;;;;;;20.82;34.91;99926.16;101175;1348;72581;-79
2021/12/10 07:07:29;;;;;;;;;;;;;;;20.76;34.87;99919.46;100321;1347;1200524;-80
2021/12/10 07:09:57;;;;;;;;;;;;;;;20.72;34.98;99927.89;101330;1347;61414;-79
2021/12/10 07:12:26;;;;;;;;;;;;;;;20.69;34.97;99929.13;101238;1347;61220;-80
2021/12/10 07:15:03;;;;;;;;;;;;;;;20.68;34.90;99927.77;101133;1348;73590;-78
2021/12/10 07:17:31;;;;;;;;;;;;;;;20.69;35.05;99930.41;101058;1349;75947;-78
2021/12/10 07:20:05;;;;;;;;;;;;;;;20.71;34.95;99927.89;101199;1347;61308;-79
2021/12/10 07:22:59;;;;;;;;;;;;;;;20.77;35.14;99930.30;101155;1349;63705;-78
2021/12/10 07:25:25;;;;;;;;;;;;;;;20.82;35.07;99928.06;102786;1348;72655;-78
2021/12/10 07:27:53;;;;;;;;;;;;;;;20.89;35.04;99931.44;101392;1349;74489;-78
2021/12/10 07:30:19;;;;;;;;;;;;;;;20.94;35.20;99927.98;101213;1346;61432;-77
2021/12/10 07:32:48;;;;;;;;;;;;;;;20.98;34.88;99929.42;101150;1349;61339;-78
2021/12/10 07:35:19;;;;;;;;;;;;;;;21.02;35.05;99918.55;100971;1353;61362;-78
2021/12/10 07:37:45;;;;;;;;;;;;;;;21.06;35.12;99912.64;100973;1349;73360;-78
2021/12/10 07:40:14;;;;;;;;;;;;;;;21.10;35.23;99912.53;101250;1348;61866;-78
2021/12/10 07:42:45;;;;;;;;;;;;;;;21.13;35.13;99910.27;101188;1347;61313;-78
2021/12/10 07:45:11;;;;;;;;;;;;;;;21.16;35.01;99907.02;101271;1351;72881;-80
2021/12/10 07:47:41;;;;;;;;;;;;;;;21.18;35.26;99912.95;101055;1347;76160;-79
2021/12/10 07:50:15;;;;;;;;;;;;;;;21.20;35.22;99916.48;101193;1349;61438;-78
2021/12/10 07:52:45;;;;;;;;;;;;;;;21.22;35.19;99925.83;102650;1352;60860;-78
2021/12/10 07:55:13;;;;;;;;;;;;;;;21.23;35.35;99933.74;102550;1346;73595;-78
2021/12/10 07:57:40;;;;;;;;;;;;;;;21.21;35.36;99933.36;102250;1349;74977;-78
2021/12/10 08:00:08;;;;;;;;;;;;;;;21.16;35.33;99941.33;102565;1352;59373;-78
2021/12/10 08:02:34;;;;;;;;;;;;;;;21.08;35.44;99954.35;102419;1350;61350;-79
2021/12/10 08:04:59;;;;;;;;;;;;;;;21.01;35.60;99960.64;102377;1354;59534;-79
2021/12/10 08:07:25;;;;;;;;;;;;;;;20.95;35.62;99966.52;102521;1350;59203;-79
2021/12/10 08:09:51;;;;;;;;;;;;;;;20.93;35.94;99977.78;102543;1350;59533;-78
2021/12/10 08:12:17;;;;;;;;;;;;;;;20.91;35.82;99976.86;102518;1350;60082;-78
2021/12/10 08:14:45;;;;;;;;;;;;;;;20.92;35.87;99984.30;102569;1349;59299;-78
2021/12/10 08:17:11;;;;;;;;;;;;;;;20.97;35.85;99985.35;102595;1354;59187;-78
2021/12/10 08:19:37;;;;;;;;;;;;;;;21.02;36.05;99992.46;102700;1350;59583;-78
2021/12/10 08:22:02;;;;;;;;;;;;;;;21.07;36.03;99992.73;102689;1345;59816;-78
2021/12/10 08:24:28;;;;;;;;;;;;;;;21.13;36.04;99996.31;102783;1347;59625;-78
2021/12/10 08:26:53;;;;;;;;;;;;;;;21.19;36.17;99989.44;102615;1349;74109;-78
2021/12/10 08:29:20;;;;;;;;;;;;;;;21.23;36.26;99982.75;102741;1348;60181;-78
2021/12/10 08:31:46;;;;;;;;;;;;;;;21.28;36.26;99978.42;102695;1349;59597;-79
2021/12/10 08:34:12;;;;;;;;;;;;;;;21.32;36.17;99981.87;102571;1350;59329;-78
2021/12/10 08:36:37;;;;;;;;;;;;;;;21.35;36.08;99989.63;102571;1350;60040;-78
2021/12/10 08:39:05;;;;;;;;;;;;;;;21.38;36.10;99993.73;102659;1349;59129;-78
2021/12/10 08:41:34;;;;;;;;;;;;;;;21.41;36.23;99992.91;102175;1347;59721;-78
2021/12/10 08:44:00;;;;;;;;;;;;;;;21.42;36.15;99991.17;102425;1348;61362;-78
2021/12/10 08:46:26;;;;;;;;;;;;;;;21.44;36.15;99984.79;101153;1350;72773;-78
2021/12/10 08:49:02;;;;;;;;;;;;;;;21.45;36.01;99989.36;101238;1348;62968;-81
2021/12/10 08:51:38;;;;;;;;;;;;;;;21.46;35.99;99993.21;100982;1347;61308;-79
2021/12/10 08:54:04;;;;;;;;;;;;;;;21.47;36.06;99991.67;100995;1349;61749;-80
2021/12/10 08:56:56;;;;;;;;;;;;;;;21.46;36.10;99989.08;101146;1347;62145;-79
2021/12/10 08:59:24;;;;;;;;;;;;;;;21.42;35.88;99985.13;100533;1355;76076;-79
2021/12/10 09:01:56;;;;;;;;;;;;;;;21.36;36.20;99980.27;100609;1356;59865;-79
2021/12/10 09:04:29;;;;;;;;;;;;;;;21.29;36.04;99973.20;100573;1355;62322;-78
2021/12/10 09:06:56;;;;;;;;;;;;;;;21.20;36.15;99978.54;100705;1353;72563;-79
2021/12/10 09:09:21;;;;;;;;;;;;;;;21.15;36.09;99975.56;100900;1353;75887;-78
2021/12/10 09:11:52;;;;;;;;;;;;;;;21.13;36.34;99976.61;100769;1357;61179;-78
2021/12/10 09:14:47;;;;;;;;;;;;;;;21.15;36.35;99981.35;100908;1354;61534;-79
2021/12/10 09:17:27;;;;;;;;;;;;;;;21.17;36.22;99983.11;100627;1358;73887;-79
2021/12/10 09:20:42;;;;;;;;;;;;;;;21.19;36.25;99989.89;99917;1366;76343;-78
2021/12/10 09:23:08;;;;;;;;;;;;;;;21.23;36.23;99987.61;99928;1365;61427;-79
2021/12/10 09:25:39;;;;;;;;;;;;;;;21.24;36.30;99982.18;99887;1365;61387;-78
2021/12/10 09:28:10;;;;;;;;;;;;;;;21.24;36.22;99977.16;99944;1365;72882;-78
2021/12/10 09:30:59;;;;;;;;;;;;;;;21.26;36.23;99980.16;99746;1366;75172;-79
2021/12/10 09:33:48;;;;;;;;;;;;;;;21.28;36.31;99970.52;100229;1376;59408;-78
2021/12/10 09:36:15;;;;;;;;;;;;;;;21.31;36.34;99976.07;99728;1366;61670;-78
2021/12/10 09:38:41;;;;;;;;;;;;;;;21.33;36.34;99968.88;100029;1366;73054;-78
2021/12/10 09:48:15;;;;;;;;;;;;;;;21.40;36.47;99968.79;100008;1365;61928;-78
2021/12/10 09:51:22;;;;;;;;;;;;;;;21.41;36.49;99968.52;100227;1365;72338;-79
2021/12/10 09:53:58;;;;;;;;;;;;;;;21.35;36.45;99968.33;100056;1366;74977;-79
2021/12/10 09:56:24;;;;;;;;;;;;;;;21.27;36.47;99964.91;100449;1360;61202;-79
2021/12/10 09:58:53;;;;;;;;;;;;;;;21.15;36.52;99959.31;100594;1356;61333;-79
2021/12/10 10:01:24;;;;;;;;;;;;;;;21.05;36.66;99946.36;100721;1355;73040;-79
2021/12/10 10:04:14;;;;;;;;;;;;;;;20.99;36.80;99951.37;100660;1356;75851;-80
2021/12/10 10:07:05;;;;;;;;;;;;;;;20.91;36.86;99964.71;100575;1354;61479;-78
2021/12/10 10:09:51;;;;;;;;;;;;;;;20.86;36.99;99962.09;100731;1353;61271;-79
2021/12/10 10:12:50;;;;;;;;;;;;;;;20.81;37.09;99956.26;101209;1348;71698;-79
2021/12/10 10:15:37;;;;;;;;;;;;;;;20.81;37.14;99972.89;101000;1349;74496;-79
2021/12/10 10:18:06;;;;;;;;;;;;;;;20.86;37.25;99978.37;101162;1351;62936;-79
2021/12/10 10:20:44;;;;;;;;;;;;;;;20.90;37.37;99980.52;101435;1350;61767;-79
2021/12/10 10:23:21;;;;;;;;;;;;;;;20.95;37.42;99983.85;101031;1352;73938;-79
2021/12/10 10:25:50;;;;;;;;;;;;;;;21.00;37.36;99979.88;101436;1347;74736;-78
2021/12/10 10:28:18;;;;;;;;;;;;;;;21.02;37.45;99970.95;101871;1349;61674;-78
2021/12/10 10:30:56;;;;;;;;;;;;;;;21.06;37.33;99966.65;101089;1350;61302;-78
2021/12/10 10:33:22;;;;;;;;;;;;;;;21.12;37.46;99968.16;102749;1350;73923;-79
2021/12/10 10:35:49;;;;;;;;;;;;;;;21.15;37.43;99962.04;102753;1351;59540;-79
2021/12/10 10:38:16;;;;;;;;;;;;;;;21.16;37.47;99948.88;102627;1350;59493;-79
2021/12/10 10:40:44;;;;;;;;;;;;;;;21.18;37.45;99942.23;102700;1346;61515;-79
2021/12/10 10:43:09;;;;;;;;;;;;;;;21.21;37.48;99948.23;102589;1350;74954;-80
2021/12/10 10:45:36;;;;;;;;;;;;;;;21.23;37.55;99948.77;102284;1347;59576;-79
2021/12/10 10:48:04;;;;;;;;;;;;;;;21.22;37.38;99942.84;101482;1347;61552;-78
2021/12/10 10:50:31;;;;;;;;;;;;;;;21.23;37.46;99939.30;101296;1347;61449;-78
2021/12/10 10:53:10;;;;;;;;;;;;;;;21.22;37.31;99945.97;101136;1349;73813;-79
2021/12/10 10:55:40;;;;;;;;;;;;;;;21.13;37.25;99950.34;102402;1350;75017;-79
2021/12/10 10:58:10;;;;;;;;;;;;;;;21.04;37.44;99944.80;102581;1350;60629;-79
2021/12/10 11:01:14;;;;;;;;;;;;;;;21.01;37.39;99944.23;102667;1347;61315;-80
2021/12/10 11:03:43;;;;;;;;;;;;;;;20.98;37.55;99934.10;102164;1356;72613;-79
2021/12/10 11:06:10;;;;;;;;;;;;;;;20.95;37.48;99931.85;102118;1355;74278;-79
2021/12/10 11:08:38;;;;;;;;;;;;;;;20.92;37.43;99931.55;102102;1355;62689;-81
2021/12/10 11:11:05;;;;;;;;;;;;;;;20.89;37.52;99924.98;102286;1353;60553;-80
2021/12/10 11:13:31;;;;;;;;;;;;;;;20.87;37.46;99915.18;102147;1355;60978;-79
2021/12/10 11:16:04;;;;;;;;;;;;;;;20.81;37.44;99909.90;101198;1355;61444;-79
2021/12/10 11:18:39;;;;;;;;;;;;;;;20.74;37.47;99912.70;100775;1354;61321;-79
2021/12/10 11:21:05;;;;;;;;;;;;;;;20.70;37.42;99914.75;102310;1354;60439;-80
2021/12/10 11:23:33;;;;;;;;;;;;;;;20.68;37.41;99915.64;102233;1352;59258;-79
2021/12/10 11:25:59;;;;;;;;;;;;;;;20.66;37.43;99921.52;101992;1356;76035;-79
2021/12/10 11:28:26;;;;;;;;;;;;;;;20.65;37.40;99932.52;102185;1359;59690;-79
2021/12/10 11:30:53;;;;;;;;;;;;;;;20.65;37.60;99941.08;102175;1350;59754;-79
2021/12/10 11:33:21;;;;;;;;;;;;;;;20.67;37.64;99942.52;102223;1353;74864;-80
2021/12/10 11:35:51;;;;;;;;;;;;;;;20.68;37.68;99942.09;102117;1354;75871;-79
2021/12/10 11:38:17;;;;;;;;;;;;;;;20.67;37.76;99934.34;102314;1354;59864;-79
2021/12/10 11:40:46;;;;;;;;;;;;;;;20.64;37.74;99931.34;102564;1349;59482;-79
2021/12/10 11:49:07;;;;;;;;;;;;;;;20.58;37.68;99924.89;100090;1360;61432;-78
2021/12/10 11:51:47;;;;;;;;;;;;;;;20.53;37.61;99924.61;100491;1353;62216;-79
2021/12/10 11:54:18;;;;;;;;;;;;;;;20.49;37.48;99917.38;100409;1354;72941;-79
2021/12/10 11:57:10;;;;;;;;;;;;;;;;;;;;;
2021/12/10 11:59:37;;;;;;;;;;;;;;;20.41;37.54;99915.17;102255;1353;60283;-80
2021/12/10 12:02:03;;;;;;;;;;;;;;;20.40;37.58;99912.05;102080;1360;61558;-80
2021/12/10 12:04:38;;;;;;;;;;;;;;;20.37;37.65;99918.31;102071;1359;59785;-81
2021/12/10 12:07:25;;;;;;;;;;;;;;;20.33;37.58;99924.03;102086;1353;74936;-81
2021/12/10 12:09:55;;;;;;;;;;;;;;;20.29;37.56;99925.60;102119;1357;60304;-81
2021/12/10 12:12:23;;;;;;;;;;;;;;;20.30;37.49;99926.98;102060;1358;61569;-81
2021/12/10 12:14:54;;;;;;;;;;;;;;;20.31;37.58;99921.38;102142;1355;72805;-81
2021/12/10 12:17:36;;;;;;;;;;;;;;;20.32;37.60;99913.02;100934;1363;73878;-81
2021/12/10 12:20:01;;;;;;;;;;;;;;;20.35;37.70;99904.11;102162;1355;61621;-81
2021/12/10 12:25:27;;;;;;;;;;;;;;;20.36;37.70;99910.54;102226;1358;72839;-81
2021/12/10 12:28:09;;;;;;;;;;;;;;;20.37;37.61;99904.57;102798;1350;75820;-81
2021/12/10 12:30:49;;;;;;;;;;;;;;;20.37;37.70;99914.22;101915;1349;61242;-81
2021/12/10 12:33:27;;;;;;;;;;;;;;;20.38;37.48;99922.44;101658;1354;61909;-80
2021/12/10 12:35:54;;;;;;;;;;;;;;;20.38;37.62;99928.83;101756;1348;74047;-79
2021/12/10 12:38:47;;;;;;;;;;;;;;;20.38;37.60;99920.58;101600;1349;74826;-79
2021/12/10 12:41:15;;;;;;;;;;;;;;;20.37;37.51;99921.52;101187;1356;63974;-79
2021/12/10 12:44:30;;;;;;;;;;;;;;;20.36;37.38;99927.59;101071;1356;61404;-81
2021/12/10 12:46:57;;;;;;;;;;;;;;;20.33;37.46;99927.66;101021;1361;72766;-79
2021/12/10 12:49:23;;;;;;;;;;;;;;;20.31;37.40;99914.44;101090;1359;74965;-79
2021/12/10 12:52:00;;;;;;;;;;;;;;;20.29;37.30;99918.66;100612;1359;60041;-79
2021/12/10 12:54:29;;;;;;;;;;;;;;;20.26;37.40;99915.34;100509;1359;60560;-79
2021/12/10 12:56:59;;;;;;;;;;;;;;;20.25;37.57;99910.23;101937;1360;73935;-79
2021/12/10 12:59:24;;;;;;;;;;;;;;;20.29;37.76;99907.45;101856;1363;60761;-80
2021/12/10 13:01:52;;;;;;;;;;;;;;;20.31;37.83;99904.94;101835;1360;59609;-80
2021/12/10 13:04:21;;;;;;;;;;;;;;;20.32;37.74;99898.19;101835;1363;59191;-80
2021/12/10 13:07:16;;;;;;;;;;;;;;;20.35;37.88;99904.09;101588;1364;71914;-79
2021/12/10 13:09:57;;;;;;;;;;;;;;;20.38;37.91;99910.37;100965;1369;75104;-80
2021/12/10 13:12:48;;;;;;;;;;;;;;;20.44;38.11;99920.30;101241;1366;59473;-80
2021/12/10 13:15:23;;;;;;;;;;;;;;;20.50;38.16;99926.93;101248;1372;61825;-80
2021/12/10 13:17:55;;;;;;;;;;;;;;;20.57;38.17;99925.98;101516;1366;73051;-81
2021/12/10 13:20:21;;;;;;;;;;;;;;;20.65;38.12;99929.68;101128;1362;75768;-80
2021/12/10 13:22:52;;;;;;;;;;;;;;;20.70;38.08;99926.38;100687;1362;61385;-79
2021/12/10 13:25:20;;;;;;;;;;;;;;;20.75;38.01;99923.96;101791;1363;60606;-80
2021/12/10 13:27:46;;;;;;;;;;;;;;;20.81;38.01;99916.07;101777;1366;72448;-81
2021/12/10 13:30:13;;;;;;;;;;;;;;;20.85;37.98;99911.53;101518;1366;61559;-80
2021/12/10 13:32:57;;;;;;;;;;;;;;;20.90;37.94;99913.96;100960;1359;61395;-79
2021/12/10 13:35:42;;;;;;;;;;;;;;;20.95;37.95;99903.95;100843;1360;61356;-80
2021/12/10 13:38:12;;;;;;;;;;;;;;;20.98;37.97;99909.23;100915;1367;73016;-79
2021/12/10 13:40:49;;;;;;;;;;;;;;;21.00;37.84;99915.11;100938;1366;74809;-82
2021/12/10 13:43:19;;;;;;;;;;;;;;;21.02;37.93;99910.84;101008;1363;61719;-80
2021/12/10 13:46:08;;;;;;;;;;;;;;;21.03;37.81;99905.36;101023;1363;61322;-80
2021/12/10 13:49:19;;;;;;;;;;;;;;;;;;;;;
2021/12/10 13:52:02;;;;;;;;;;;;;;;;;;;;;
2021/12/10 13:54:53;;;;;;;;;;;;;;;21.08;37.45;99881.33;101391;1357;61332;-81
2021/12/10 13:57:59;;;;;;;;;;;;;;;21.09;37.59;99884.64;101391;1363;61317;-81
2021/12/10 14:00:45;;;;;;;;;;;;;;;21.11;37.55;99879.14;101534;1357;72864;-81
2021/12/10 14:04:10;;;;;;;;;;;;;;;;;;;;;
2021/12/10 14:07:09;;;;;;;;;;;;;;;21.12;37.76;99887.85;101527;1360;61629;-82
2021/12/10 14:10:11;;;;;;;;;;;;;;;;;;;;;
2021/12/10 14:13:03;;;;;;;;;;;;;;;21.13;37.56;99903.31;101214;1363;71629;-82
2021/12/10 14:15:44;;;;;;;;;;;;;;;21.13;37.46;99900.06;100368;1369;75302;-79
2021/12/10 14:18:23;;;;;;;;;;;;;;;21.15;37.52;99907.11;100441;1370;61284;-80
2021/12/10 14:21:42;;;;;;;;;;;;;;;;;;;;;
2021/12/10 14:24:50;;;;;;;;;;;;;;;21.18;37.51;99916.14;100442;1366;73087;-80
2021/12/10 14:27:32;;;;;;;;;;;;;;;21.20;37.65;99904.14;100218;1375;74816;-81
2021/12/10 14:30:29;;;;;;;;;;;;;;;21.21;37.63;99906.86;100125;1372;61518;-81
2021/12/10 14:33:27;;;;;;;;;;;;;;;;;;;;;
2021/12/10 14:36:19;;;;;;;;;;;;;;;21.25;37.74;99896.13;100019;1375;72959;-81
2021/12/10 14:39:16;;;;;;;;;;;;;;;21.28;37.74;99908.65;100086;1375;75600;-81
2021/12/10 14:42:32;;;;;;;;;;;;;;;;;;;;;
2021/12/10 14:45:31;;;;;;;;;;;;;;;;;;;;;
2021/12/10 14:48:22;;;;;;;;;;;;;;;21.31;37.78;99913.93;100193;1374;73022;-81
2021/12/10 14:51:18;;;;;;;;;;;;;;;;;;;;;
2021/12/10 14:54:19;;;;;;;;;;;;;;;21.34;37.83;99884.89;100757;1366;61323;-80
2021/12/10 14:57:02;;;;;;;;;;;;;;;21.34;37.91;99858.23;100352;1373;61220;-81
2021/12/10 14:59:40;;;;;;;;;;;;;;;21.35;37.95;99860.42;100393;1365;73814;-81
2021/12/10 15:02:42;;;;;;;;;;;;;;;;;;;;;
2021/12/10 15:05:28;;;;;;;;;;;;;;;21.36;38.03;99851.55;100762;1369;61345;-81
2021/12/10 15:08:07;;;;;;;;;;;;;;;;;;;;;
2021/12/10 15:10:36;;;;;;;;;;;;;;;21.37;37.99;99842.33;100761;1369;72725;-82
2021/12/10 15:13:52;;;;;;;;;;;;;;;21.38;38.07;99832.47;100856;1363;75867;-82
2021/12/10 15:16:50;;;;;;;;;;;;;;;;;;;;;
2021/12/10 15:19:46;;;;;;;;;;;;;;;21.39;38.12;99838.61;100408;1369;61352;-81
2021/12/10 15:22:45;;;;;;;;;;;;;;;21.39;38.27;99844.13;99897;1380;73937;-82
2021/12/10 15:25:42;;;;;;;;;;;;;;;21.39;38.21;99846.63;99729;1375;75480;-82
2021/12/10 15:28:28;;;;;;;;;;;;;;;21.40;38.24;99846.40;99794;1374;61273;-82
2021/12/10 15:31:15;;;;;;;;;;;;;;;21.41;38.30;99843.81;99810;1373;61879;-81
2021/12/10 15:33:53;;;;;;;;;;;;;;;21.41;38.31;99841.33;99926;1376;72889;-82
2021/12/10 15:36:34;;;;;;;;;;;;;;;;;;;;;
2021/12/10 15:39:34;;;;;;;;;;;;;;;21.42;38.35;99850.66;100217;1376;61345;-82
2021/12/10 15:42:31;;;;;;;;;;;;;;;;;;;;;
2021/12/10 15:45:17;;;;;;;;;;;;;;;21.43;38.57;99852.94;101015;1363;73844;-82
2021/12/10 15:48:11;;;;;;;;;;;;;;;21.43;38.46;99856.84;100750;1371;75830;-82
2021/12/10 15:51:11;;;;;;;;;;;;;;;21.43;38.69;99858.96;100766;1370;61233;-82
2021/12/10 15:53:50;;;;;;;;;;;;;;;;;;;;;